Time;durP1;ratioP1;P1;durP2;ratioP2;P2;SDS_P1;SDS_P2;PMS_P1;PMS_P2;Temp;Humidity;BMP_temperature;BMP_pressure;BME280_temperature;BME280_humidity;BME280_pressure;Samples;Min_cycle;Max_cycle;Signal;HPM_P1;HPM_P2
2023/05/21 00:00:01;;;;;;;15.70;14.30;;;;;;;12.67;95.83;97143.42;109399;1268;22542;-83
2023/05/21 00:02:33;;;;;;;15.50;13.90;;;;;;;12.68;95.93;97144.02;109305;1269;22679;-84
2023/05/21 00:05:04;;;;;;;15.30;13.70;;;;;;;12.64;95.69;97140.73;109292;1270;23002;-84
2023/05/21 00:07:35;;;;;;;17.30;14.50;;;;;;;12.58;95.19;97141.36;109309;1270;23868;-84
2023/05/21 00:10:07;;;;;;;16.00;14.40;;;;;;;12.43;94.89;97140.83;109290;1264;22528;-85
2023/05/21 00:12:39;;;;;;;16.50;14.70;;;;;;;12.40;95.53;97141.23;109463;1270;23412;-83
2023/05/21 00:15:11;;;;;;;17.30;15.60;;;;;;;12.40;96.02;97138.31;109359;1265;22466;-83
2023/05/21 00:17:42;;;;;;;17.00;15.30;;;;;;;12.42;96.46;97133.14;109425;1266;22533;-84
2023/05/21 00:20:15;;;;;;;16.60;14.90;;;;;;;12.47;96.58;97132.66;109432;1270;22571;-83
2023/05/21 00:22:47;;;;;;;17.60;15.50;;;;;;;12.48;96.59;97129.73;109328;1271;22512;-84
2023/05/21 00:25:18;;;;;;;16.30;14.60;;;;;;;12.44;96.65;97122.91;109317;1266;25782;-83
2023/05/21 00:27:48;;;;;;;16.20;14.70;;;;;;;12.42;96.84;97123.92;109342;1271;22992;-83
2023/05/21 00:30:19;;;;;;;16.30;14.50;;;;;;;12.45;97.18;97123.86;109332;1270;22515;-84
2023/05/21 00:32:50;;;;;;;17.00;14.20;;;;;;;12.50;97.61;97123.44;109293;1272;22507;-83
2023/05/21 00:35:21;;;;;;;16.50;14.00;;;;;;;12.54;97.69;97122.73;109356;1271;22453;-83
2023/05/21 00:37:52;;;;;;;16.20;14.60;;;;;;;12.55;97.71;97121.29;109297;1271;22464;-83
2023/05/21 00:40:23;;;;;;;16.10;14.50;;;;;;;12.59;97.99;97121.41;109332;1267;22514;-83
2023/05/21 00:42:56;;;;;;;16.00;14.50;;;;;;;12.59;98.15;97121.52;109308;1271;22557;-83
2023/05/21 00:45:28;;;;;;;15.40;13.80;;;;;;;12.60;98.29;97115.18;109372;1267;22486;-83
2023/05/21 00:48:01;;;;;;;15.50;13.90;;;;;;;12.60;98.57;97114.44;109339;1257;25275;-83
2023/05/21 00:50:32;;;;;;;17.10;15.20;;;;;;;12.60;98.90;97115.38;109315;1269;25616;-83
2023/05/21 00:53:03;;;;;;;16.90;15.30;;;;;;;12.64;99.32;97118.48;109297;1271;22760;-83
2023/05/21 00:55:34;;;;;;;15.30;13.80;;;;;;;12.65;99.56;97118.53;109301;1268;22494;-83
2023/05/21 00:58:06;;;;;;;15.80;13.80;;;;;;;12.58;99.07;97119.66;109267;1272;22651;-83
2023/05/21 01:00:39;;;;;;;17.50;15.70;;;;;;;12.47;98.86;97118.09;109308;1271;25444;-83
2023/05/21 01:03:12;;;;;;;16.80;15.10;;;;;;;12.44;99.28;97118.59;109299;1266;22649;-83
2023/05/21 01:05:43;;;;;;;16.80;15.10;;;;;;;12.44;99.64;97120.63;109286;1267;22573;-83
2023/05/21 01:08:14;;;;;;;16.80;15.20;;;;;;;12.42;99.52;97122.45;109298;1250;22646;-83
2023/05/21 01:10:45;;;;;;;18.00;16.00;;;;;;;12.37;99.76;97125.60;109315;1252;22542;-83
2023/05/21 01:13:19;;;;;;;17.20;15.40;;;;;;;12.39;100.00;97117.73;109320;1267;22521;-83
2023/05/21 01:15:51;;;;;;;17.90;16.10;;;;;;;12.42;100.00;97115.00;109347;1272;22590;-83
2023/05/21 01:18:22;;;;;;;16.10;14.50;;;;;;;12.44;100.00;97110.20;109306;1269;23855;-83
2023/05/21 01:20:54;;;;;;;17.00;15.30;;;;;;;12.41;99.98;97106.55;109260;1271;22555;-82
2023/05/21 01:23:25;;;;;;;17.10;15.30;;;;;;;12.37;100.00;97108.95;109248;1272;24301;-82
2023/05/21 01:25:56;;;;;;;16.20;14.50;;;;;;;12.32;99.84;97107.94;109325;1266;22660;-83
2023/05/21 01:28:27;;;;;;;17.60;15.30;;;;;;;12.30;99.95;97107.48;109312;1272;22575;-83
2023/05/21 01:31:01;;;;;;;16.70;14.30;;;;;;;12.21;100.00;97107.52;109298;1272;22589;-82
2023/05/21 01:33:38;;;;;;;17.00;15.00;;;;;;;12.13;100.00;97109.18;109322;1271;23782;-82
2023/05/21 01:36:16;;;;;;;18.20;16.50;;;;;;;12.07;100.00;97108.20;109291;1271;22510;-82
2023/05/21 01:38:54;;;;;;;24.10;16.40;;;;;;;12.01;100.00;97110.90;109293;1269;24215;-83
2023/05/21 01:41:28;;;;;;;17.10;15.40;;;;;;;11.91;100.00;97111.33;109334;1269;22484;-82
2023/05/21 01:43:59;;;;;;;16.70;15.20;;;;;;;11.85;100.00;97107.54;109424;1267;22526;-83
2023/05/21 01:46:33;;;;;;;18.20;16.40;;;;;;;11.82;100.00;97106.70;109426;1264;25405;-82
2023/05/21 01:49:05;;;;;;;17.10;15.30;;;;;;;11.79;100.00;97106.00;109418;1264;22501;-82
2023/05/21 01:51:36;;;;;;;19.90;15.40;;;;;;;11.72;100.00;97106.23;109434;1270;23765;-82
2023/05/21 01:54:07;;;;;;;16.70;15.00;;;;;;;11.70;100.00;97102.80;109463;1270;24206;-82
2023/05/21 01:56:38;;;;;;;16.90;15.30;;;;;;;11.69;100.00;97099.40;109459;1270;23597;-82
2023/05/21 01:59:09;;;;;;;16.70;15.00;;;;;;;11.71;100.00;97097.70;109398;1270;22471;-83
2023/05/21 02:01:40;;;;;;;18.20;16.20;;;;;;;11.70;100.00;97096.11;109318;1270;22480;-82
2023/05/21 02:04:11;;;;;;;17.00;15.30;;;;;;;11.62;100.00;97096.66;109275;1269;22614;-81
2023/05/21 02:06:43;;;;;;;17.80;16.10;;;;;;;11.58;100.00;97093.23;109293;1271;22644;-82
2023/05/21 02:09:14;;;;;;;19.10;16.20;;;;;;;11.58;100.00;97093.19;109277;1271;22549;-82
2023/05/21 02:11:45;;;;;;;17.70;15.90;;;;;;;11.59;100.00;97091.15;109360;1267;22452;-81
2023/05/21 02:14:15;;;;;;;16.90;15.20;;;;;;;11.58;100.00;97090.73;109432;1270;22515;-82
2023/05/21 02:16:46;;;;;;;18.10;16.30;;;;;;;11.56;100.00;97084.59;109388;1268;22469;-82
2023/05/21 02:19:17;;;;;;;18.00;16.20;;;;;;;11.56;100.00;97083.80;109438;1270;22480;-82
2023/05/21 02:21:48;;;;;;;16.80;15.20;;;;;;;11.59;100.00;97081.65;109286;1272;22476;-83
2023/05/21 02:24:21;;;;;;;18.60;16.70;;;;;;;11.58;100.00;97080.76;109316;1272;23819;-83
2023/05/21 02:26:51;;;;;;;17.80;16.00;;;;;;;11.55;100.00;97077.64;109301;1272;24154;-83
2023/05/21 02:29:23;;;;;;;19.60;16.60;;;;;;;11.47;100.00;97078.94;109280;1270;24177;-83
2023/05/21 02:31:54;;;;;;;17.20;15.60;;;;;;;11.38;100.00;97075.77;109259;1272;23891;-82
2023/05/21 02:34:24;;;;;;;18.70;16.90;;;;;;;11.37;100.00;97071.86;109317;1267;22574;-82
2023/05/21 02:36:55;;;;;;;17.60;15.90;;;;;;;11.41;100.00;97073.13;109338;1270;22452;-82
2023/05/21 02:39:26;;;;;;;16.90;15.10;;;;;;;11.44;100.00;97076.04;109282;1272;23983;-82
2023/05/21 02:41:57;;;;;;;17.80;16.00;;;;;;;11.47;100.00;97073.58;109256;1264;22531;-82
2023/05/21 02:44:28;;;;;;;18.20;16.10;;;;;;;11.51;100.00;97069.30;109235;1267;22561;-83
2023/05/21 02:46:59;;;;;;;19.60;17.50;;;;;;;11.53;100.00;97068.33;109273;1267;22537;-83
2023/05/21 02:49:30;;;;;;;18.10;16.20;;;;;;;11.57;100.00;97069.45;109260;1265;22647;-82
2023/05/21 02:52:01;;;;;;;17.90;16.20;;;;;;;11.60;100.00;97065.45;109291;1271;22476;-82
2023/05/21 02:54:32;;;;;;;18.80;17.00;;;;;;;11.60;100.00;97065.70;109344;1266;22488;-82
2023/05/21 02:57:03;;;;;;;17.70;16.00;;;;;;;11.65;100.00;97064.09;109354;1269;22547;-82
2023/05/21 02:59:34;;;;;;;18.20;16.50;;;;;;;11.67;100.00;97060.09;109337;1269;24139;-82
2023/05/21 03:02:05;;;;;;;20.70;16.00;;;;;;;11.64;100.00;97059.73;109279;1272;25443;-82
2023/05/21 03:04:37;;;;;;;17.10;15.40;;;;;;;11.62;100.00;97063.58;109299;1271;25374;-82
2023/05/21 03:07:09;;;;;;;16.30;14.70;;;;;;;11.64;100.00;97062.34;109258;1266;22485;-82
2023/05/21 03:09:41;;;;;;;17.50;15.70;;;;;;;11.65;100.00;97064.82;109284;1272;22610;-82
2023/05/21 03:12:12;;;;;;;16.90;15.30;;;;;;;11.70;100.00;97066.67;109239;1267;22522;-82
2023/05/21 03:14:45;;;;;;;17.20;15.60;;;;;;;11.75;100.00;97064.77;109270;1272;25306;-82
2023/05/21 03:17:17;;;;;;;17.50;15.80;;;;;;;11.77;100.00;97064.35;109261;1267;25411;-82
2023/05/21 03:19:49;;;;;;;17.20;15.50;;;;;;;11.78;100.00;97068.58;109234;1251;22595;-82
2023/05/21 03:22:20;;;;;;;17.30;15.50;;;;;;;11.83;100.00;97062.81;109359;1264;22492;-82
2023/05/21 03:24:52;;;;;;;17.80;15.90;;;;;;;11.91;100.00;97064.52;109440;1269;22518;-82
2023/05/21 03:27:23;;;;;;;18.80;16.90;;;;;;;12.00;100.00;97059.89;109366;1270;22533;-82
2023/05/21 03:29:54;;;;;;;17.60;15.80;;;;;;;12.07;100.00;97062.80;109364;1270;22661;-82
2023/05/21 03:32:28;;;;;;;17.80;15.30;;;;;;;12.06;100.00;97063.83;109293;1271;22598;-82
2023/05/21 03:34:59;;;;;;;17.40;15.60;;;;;;;12.00;100.00;97060.09;109310;1266;25265;-82
2023/05/21 03:37:30;;;;;;;17.40;15.70;;;;;;;11.90;100.00;97064.09;109335;1266;22511;-82
2023/05/21 03:40:01;;;;;;;18.90;16.80;;;;;;;11.95;100.00;97066.61;109361;1268;22660;-82
2023/05/21 03:42:32;;;;;;;18.90;16.60;;;;;;;12.05;100.00;97070.59;109306;1252;22862;-82
2023/05/21 03:45:03;;;;;;;18.40;16.60;;;;;;;12.12;100.00;97064.91;109276;1269;22682;-83
2023/05/21 03:47:34;;;;;;;18.20;16.40;;;;;;;12.19;100.00;97065.28;109314;1266;22517;-82
2023/05/21 03:50:08;;;;;;;17.80;15.40;;;;;;;12.24;100.00;97065.73;109284;1271;22527;-82
2023/05/21 03:52:38;;;;;;;17.20;15.40;;;;;;;12.24;100.00;97068.53;109415;1270;22517;-82
2023/05/21 03:55:12;;;;;;;18.40;16.70;;;;;;;12.26;100.00;97067.58;109433;1267;22673;-82
2023/05/21 03:57:44;;;;;;;17.30;15.70;;;;;;;12.32;100.00;97064.18;109433;1247;22783;-82
2023/05/21 04:00:16;;;;;;;17.50;15.80;;;;;;;12.36;100.00;97061.79;109338;1264;25258;-82
2023/05/21 04:02:47;;;;;;;18.30;16.10;;;;;;;12.45;100.00;97061.63;109364;1269;25345;-82
2023/05/21 04:05:19;;;;;;;17.90;16.00;;;;;;;12.56;100.00;97056.96;109417;1270;22656;-82
2023/05/21 04:07:50;;;;;;;17.90;16.10;;;;;;;12.68;100.00;97059.58;109370;1269;22536;-82
2023/05/21 04:10:21;;;;;;;17.40;15.60;;;;;;;12.78;100.00;97059.46;109353;1270;22468;-82
2023/05/21 04:12:52;;;;;;;16.60;14.90;;;;;;;12.89;100.00;97058.36;109436;1267;22524;-82
2023/05/21 04:15:24;;;;;;;16.20;14.70;;;;;;;12.92;100.00;97059.01;109394;1262;23693;-82
2023/05/21 04:17:55;;;;;;;15.20;13.70;;;;;;;12.96;100.00;97064.99;109411;1264;22552;-82
2023/05/21 04:20:28;;;;;;;16.20;14.60;;;;;;;12.99;100.00;97066.57;109403;1270;24190;-82
2023/05/21 04:22:59;;;;;;;15.50;13.90;;;;;;;13.09;100.00;97065.17;109411;1263;23914;-82
2023/05/21 04:25:31;;;;;;;16.70;15.20;;;;;;;13.25;100.00;97065.09;109380;1267;22561;-82
2023/05/21 04:28:02;;;;;;;16.40;14.70;;;;;;;13.42;100.00;97065.58;109418;1264;22524;-82
2023/05/21 04:30:34;;;;;;;16.70;15.10;;;;;;;13.60;100.00;97061.52;109394;1264;22522;-82
2023/05/21 04:33:06;;;;;;;17.00;15.20;;;;;;;13.73;100.00;97057.98;109386;1264;22548;-82
2023/05/21 04:35:43;;;;;;;15.70;14.10;;;;;;;13.87;100.00;97059.52;109377;1267;22684;-82
2023/05/21 04:38:18;;;;;;;16.90;15.10;;;;;;;13.97;100.00;97058.63;109395;1270;22578;-82
2023/05/21 04:40:50;;;;;;;15.70;14.00;;;;;;;14.08;100.00;97062.20;109391;1270;22536;-82
2023/05/21 04:43:24;;;;;;;16.00;14.40;;;;;;;14.25;100.00;97057.99;109437;1247;22654;-82
2023/05/21 04:45:56;;;;;;;16.40;14.20;;;;;;;14.42;100.00;97059.34;109429;1270;22515;-83
2023/05/21 04:48:27;;;;;;;16.40;14.70;;;;;;;14.62;100.00;97055.02;109402;1270;22654;-82
2023/05/21 04:50:58;;;;;;;15.50;13.90;;;;;;;14.86;100.00;97058.08;109367;1270;22738;-82
2023/05/21 04:53:29;;;;;;;14.80;13.00;;;;;;;15.11;100.00;97052.71;109373;1270;22550;-82
2023/05/21 04:56:01;;;;;;;14.90;13.40;;;;;;;15.39;100.00;97052.91;109431;1270;22823;-83
2023/05/21 04:58:33;;;;;;;14.00;12.70;;;;;;;15.96;100.00;97051.66;109425;1270;23863;-82
2023/05/21 05:01:04;;;;;;;13.40;12.10;;;;;;;17.37;100.00;97050.50;109384;1267;24025;-82
2023/05/21 05:03:35;;;;;;;12.00;10.90;;;;;;;19.39;100.00;97050.64;109420;1270;23868;-83
2023/05/21 05:06:07;;;;;;;14.20;10.70;;;;;;;21.36;99.94;97042.11;109456;1247;22792;-83
2023/05/21 05:08:38;;;;;;;11.70;10.30;;;;;;;22.93;95.47;97043.33;109368;1270;22562;-83
2023/05/21 05:11:09;;;;;;;9.90;9.00;;;;;;;24.32;90.70;97039.14;109389;1264;25271;-83
2023/05/21 05:13:41;;;;;;;10.80;8.90;;;;;;;25.37;81.89;97040.29;109370;1270;22504;-83
2023/05/21 05:16:13;;;;;;;11.20;8.70;;;;;;;26.15;78.74;97039.63;109399;1270;22517;-83
2023/05/21 05:18:44;;;;;;;8.60;7.80;;;;;;;26.77;74.59;97039.45;109385;1270;23516;-83
2023/05/21 05:21:15;;;;;;;9.40;7.60;;;;;;;27.59;72.69;97039.56;109379;1268;22634;-83
2023/05/21 05:23:46;;;;;;;9.60;7.60;;;;;;;28.15;64.09;97045.19;109397;1264;22535;-83
2023/05/21 05:26:17;;;;;;;8.20;7.50;;;;;;;28.56;64.69;97047.49;109384;1264;22529;-83
2023/05/21 05:28:48;;;;;;;7.70;6.80;;;;;;;28.82;59.29;97048.49;109350;1271;22634;-83
2023/05/21 05:31:19;;;;;;;7.60;6.70;;;;;;;29.47;59.97;97049.13;109358;1246;23132;-83
2023/05/21 05:33:50;;;;;;;7.70;6.90;;;;;;;30.11;58.84;97047.80;109446;1264;22503;-83
2023/05/21 05:36:21;;;;;;;9.60;6.80;;;;;;;31.23;58.77;97043.95;109402;1268;22663;-83
2023/05/21 05:38:52;;;;;;;7.20;6.40;;;;;;;32.45;57.06;97049.27;109414;1264;22564;-83
2023/05/21 05:41:23;;;;;;;7.50;6.40;;;;;;;33.09;54.03;97043.64;109411;1270;24401;-84
2023/05/21 05:43:54;;;;;;;8.40;6.50;;;;;;;33.59;52.92;97040.34;109365;1264;22455;-84
2023/05/21 05:46:25;;;;;;;8.20;6.00;;;;;;;34.27;46.81;97040.06;109313;1266;22520;-84
2023/05/21 05:48:56;;;;;;;6.70;6.00;;;;;;;32.99;39.72;97045.09;109264;1265;22456;-84
2023/05/21 05:51:28;;;;;;;6.70;5.60;;;;;;;32.44;45.33;97041.13;109226;1265;23781;-84
2023/05/21 05:53:59;;;;;;;6.60;5.70;;;;;;;33.40;43.40;97039.39;109261;1272;22702;-84
2023/05/21 05:56:31;;;;;;;8.20;6.10;;;;;;;33.41;42.75;97042.63;109270;1265;22478;-84
2023/05/21 05:59:02;;;;;;;6.50;5.90;;;;;;;33.95;44.35;97043.16;109231;1272;22574;-84
2023/05/21 06:01:33;;;;;;;9.10;5.70;;;;;;;34.84;44.00;97043.10;109257;1267;22586;-84
2023/05/21 06:04:04;;;;;;;7.10;6.00;;;;;;;35.92;43.79;97043.17;109253;1267;22686;-85
2023/05/21 06:06:35;;;;;;;8.70;5.90;;;;;;;36.74;42.59;97045.64;108505;1272;1050445;-86
2023/05/21 06:09:06;;;;;;;6.30;5.40;;;;;;;37.54;41.74;97047.70;109232;1266;22473;-86
2023/05/21 06:11:37;;;;;;;5.90;5.40;;;;;;;37.78;38.82;97047.25;109238;1266;23813;-85
2023/05/21 06:14:08;;;;;;;6.60;5.80;;;;;;;38.37;39.51;97041.59;109241;1269;22549;-86
2023/05/21 06:16:39;;;;;;;5.70;5.20;;;;;;;39.03;38.12;97040.70;109243;1272;22504;-86
2023/05/21 06:19:11;;;;;;;7.00;5.70;;;;;;;38.45;34.18;97032.09;109293;1272;25421;-85
2023/05/21 06:21:42;;;;;;;6.40;5.30;;;;;;;38.32;36.82;97027.92;109158;1268;47963;-86
2023/05/21 06:24:13;;;;;;;6.10;5.50;;;;;;;39.08;36.56;97030.89;109239;1272;25227;-85
2023/05/21 06:26:44;;;;;;;6.50;5.60;;;;;;;39.39;35.72;97026.14;109258;1265;22545;-85
2023/05/21 06:29:15;;;;;;;6.00;5.40;;;;;;;39.58;33.88;97026.09;109229;1266;22535;-85
2023/05/21 06:31:47;;;;;;;6.20;5.30;;;;;;;39.71;34.82;97021.20;109241;1265;25420;-86
2023/05/21 06:34:18;;;;;;;7.00;4.90;;;;;;;40.48;34.55;97022.02;109230;1272;22619;-86
2023/05/21 06:36:49;;;;;;;6.00;5.00;;;;;;;41.60;33.07;97018.60;109290;1266;22575;-87
2023/05/21 06:39:21;;;;;;;5.60;4.50;;;;;;;40.59;26.61;97017.19;109266;1266;22896;-86
2023/05/21 06:41:52;;;;;;;7.20;5.20;;;;;;;39.03;29.93;97015.95;109135;1250;22667;-84
2023/05/21 06:44:23;;;;;;;6.60;4.70;;;;;;;39.01;30.69;97017.73;109133;1270;24417;-85
2023/05/21 06:46:54;;;;;;;6.00;5.00;;;;;;;39.72;32.16;97014.21;109119;1273;22478;-86
2023/05/21 06:49:25;;;;;;;5.50;4.80;;;;;;;41.15;31.06;97019.78;109184;1270;22525;-86
2023/05/21 06:51:56;;;;;;;7.70;5.20;;;;;;;41.54;30.77;97019.54;109217;1268;23131;-85
2023/05/21 06:54:27;;;;;;;9.00;5.60;;;;;;;42.21;30.88;97016.20;109331;1265;22518;-84
2023/05/21 06:56:58;;;;;;;6.20;5.10;;;;;;;42.82;29.51;97018.63;109267;1272;24155;-84
2023/05/21 06:59:30;;;;;;;7.10;5.90;;;;;;;43.20;27.88;97014.02;109245;1249;22520;-85
2023/05/21 07:02:01;;;;;;;7.30;5.30;;;;;;;42.19;26.27;97016.20;109258;1266;22507;-86
2023/05/21 07:04:33;;;;;;;6.00;5.50;;;;;;;41.19;26.49;97016.80;109360;1251;25407;-83
2023/05/21 07:07:05;;;;;;;7.50;5.50;;;;;;;39.71;26.01;97011.23;109280;1271;22511;-83
2023/05/21 07:09:36;;;;;;;5.80;5.20;;;;;;;38.94;27.85;97012.92;109279;1266;22596;-84
2023/05/21 07:12:13;;;;;;;6.60;5.50;;;;;;;39.50;28.92;97007.63;109304;1266;22473;-83
2023/05/21 07:14:44;;;;;;;7.90;5.60;;;;;;;40.49;29.28;97004.70;109281;1272;22577;-84
2023/05/21 07:17:15;;;;;;;6.60;5.60;;;;;;;41.61;29.33;97008.73;109285;1272;22521;-84
2023/05/21 07:19:46;;;;;;;6.30;5.60;;;;;;;42.67;28.73;97008.64;109287;1269;23004;-83
2023/05/21 07:22:17;;;;;;;6.40;5.40;;;;;;;43.37;28.18;97009.03;109270;1266;26143;-83
2023/05/21 07:24:48;;;;;;;6.40;5.80;;;;;;;43.06;22.96;97009.11;109312;1272;22711;-83
2023/05/21 07:27:19;;;;;;;6.40;5.70;;;;;;;41.20;26.60;97011.61;109282;1266;22578;-83
2023/05/21 07:29:50;;;;;;;6.60;5.40;;;;;;;42.29;27.22;97007.12;109273;1272;22529;-83
2023/05/21 07:32:20;;;;;;;5.60;5.10;;;;;;;43.34;27.24;97011.33;109266;1267;22562;-82
2023/05/21 07:34:51;;;;;;;6.90;6.20;;;;;;;43.58;24.81;97006.36;109270;1265;25340;-83
2023/05/21 07:37:22;;;;;;;5.40;4.90;;;;;;;43.89;26.65;97007.75;109283;1266;22705;-82
2023/05/21 07:39:54;;;;;;;6.90;5.10;;;;;;;44.60;26.58;97005.96;109297;1271;22510;-83
2023/05/21 07:42:25;;;;;;;5.60;5.20;;;;;;;45.28;26.07;97007.58;109250;1272;23489;-83
2023/05/21 07:44:56;;;;;;;6.60;5.30;;;;;;;45.77;25.87;97010.10;109277;1266;22604;-83
2023/05/21 07:47:27;;;;;;;5.70;4.90;;;;;;;46.38;25.45;97010.55;109247;1269;25492;-83
2023/05/21 07:49:58;;;;;;;5.30;4.80;;;;;;;46.76;25.02;97009.77;109309;1260;22594;-83
2023/05/21 07:52:29;;;;;;;5.40;4.90;;;;;;;47.20;24.59;97011.33;109261;1271;25437;-83
2023/05/21 07:55:01;;;;;;;5.20;4.70;;;;;;;47.22;22.83;97009.03;109279;1266;22560;-83
2023/05/21 07:57:32;;;;;;;4.90;4.50;;;;;;;45.98;21.87;97007.48;109237;1265;22522;-84
2023/05/21 08:00:04;;;;;;;5.50;5.00;;;;;;;44.91;22.11;97007.08;109245;1266;22544;-84
2023/05/21 08:02:35;;;;;;;6.60;4.60;;;;;;;44.46;23.59;97004.23;109282;1265;22501;-84
2023/05/21 08:05:07;;;;;;;4.80;4.40;;;;;;;45.34;24.37;97008.25;109446;1272;24254;-84
2023/05/21 08:07:38;;;;;;;5.90;4.50;;;;;;;46.23;22.64;97005.34;109282;1272;22566;-84
2023/05/21 08:10:11;;;;;;;4.80;4.10;;;;;;;45.70;23.03;97002.03;109419;1272;25034;-84
2023/05/21 08:12:42;;;;;;;5.00;4.50;;;;;;;46.21;23.01;97004.66;110763;1272;22956;-84
2023/05/21 08:15:14;;;;;;;5.30;4.70;;;;;;;46.19;21.85;96999.61;109267;1272;22530;-84
2023/05/21 08:17:46;;;;;;;4.60;4.20;;;;;;;45.30;21.66;96993.89;109280;1266;22483;-84
2023/05/21 08:20:19;;;;;;;4.70;4.30;;;;;;;45.24;21.87;96988.77;109238;1265;22523;-84
2023/05/21 08:22:50;;;;;;;6.80;4.00;;;;;;;45.18;22.63;96989.42;109288;1267;22512;-84
2023/05/21 08:25:21;;;;;;;4.90;4.20;;;;;;;45.61;22.89;96994.30;109265;1266;25358;-83
2023/05/21 08:27:52;;;;;;;4.80;4.10;;;;;;;46.31;22.76;96989.79;109305;1249;22760;-84
2023/05/21 08:30:24;;;;;;;4.60;4.00;;;;;;;46.78;21.95;96992.31;109263;1272;25211;-84
2023/05/21 08:32:55;;;;;;;5.10;3.90;;;;;;;47.01;21.96;96985.48;109271;1266;22594;-83
2023/05/21 08:35:25;;;;;;;4.70;4.30;;;;;;;46.98;21.54;96983.56;109289;1272;24974;-83
2023/05/21 08:37:57;;;;;;;4.70;4.30;;;;;;;46.96;21.54;96982.64;109275;1269;22591;-83
2023/05/21 08:40:29;;;;;;;4.60;4.10;;;;;;;46.85;20.88;96983.06;109292;1272;22582;-83
2023/05/21 08:43:01;;;;;;;3.80;3.30;;;;;;;46.19;20.28;96983.84;109261;1264;22511;-84
2023/05/21 08:45:36;;;;;;;6.80;4.00;;;;;;;45.91;21.03;96976.10;109267;1272;22465;-83
2023/05/21 08:48:09;;;;;;;5.40;3.50;;;;;;;46.00;20.17;96980.72;109251;1272;22587;-83
2023/05/21 08:50:40;;;;;;;5.20;3.00;;;;;;;44.16;18.77;96975.95;109303;1272;25284;-83
2023/05/21 08:53:13;;;;;;;5.90;2.70;;;;;;;41.97;19.61;96973.53;109259;1266;23871;-83
2023/05/21 08:55:45;;;;;;;4.00;2.20;;;;;;;41.28;19.79;96976.52;109278;1272;22504;-83
2023/05/21 08:58:16;;;;;;;4.00;2.40;;;;;;;38.58;19.16;96976.36;109297;1266;22546;-83
2023/05/21 09:00:47;;;;;;;4.50;2.30;;;;;;;34.09;22.86;96969.84;109262;1266;22502;-81
2023/05/21 09:03:21;;;;;;;4.00;2.80;;;;;;;31.20;26.42;96974.50;109268;1266;22562;-81
2023/05/21 09:05:53;;;;;;;3.70;2.60;;;;;;;29.65;28.77;96967.90;109313;1272;22599;-81
2023/05/21 09:08:31;;;;;;;5.40;2.80;;;;;;;28.53;30.19;96969.23;109278;1265;22508;-79
2023/05/21 09:11:03;;;;;;;3.40;2.50;;;;;;;28.11;31.41;96965.89;109281;1272;22912;-80
2023/05/21 09:13:35;;;;;;;4.80;3.00;;;;;;;27.73;32.29;96966.66;109263;1272;22510;-79
2023/05/21 09:16:09;;;;;;;4.80;3.10;;;;;;;27.04;33.16;96970.13;109251;1272;22535;-79
2023/05/21 09:18:40;;;;;;;4.20;2.90;;;;;;;26.48;34.36;96963.92;109308;1266;23799;-79
2023/05/21 09:24:09;;;;;;;4.50;2.80;;;;;;;26.56;35.22;96964.48;105392;1306;545008;-78
2023/05/21 09:26:43;;;;;;;5.50;2.90;;;;;;;26.41;34.18;96970.60;108327;1279;22481;-78
2023/05/21 09:29:15;;;;;;;4.50;2.80;;;;;;;25.62;35.28;96962.63;108344;1276;22585;-80
2023/05/21 09:31:46;;;;;;;4.40;2.90;;;;;;;25.43;36.24;96961.89;108152;1285;22573;-80
2023/05/21 09:34:17;;;;;;;2.80;2.60;;;;;;;25.65;36.86;96961.41;108132;1287;24182;-80
2023/05/21 09:36:48;;;;;;;5.10;3.30;;;;;;;25.72;36.65;96962.23;108032;1285;151424;-80
2023/05/21 09:39:30;;;;;;;6.10;3.50;;;;;;;25.53;36.85;96956.29;108303;1281;23653;-80
2023/05/21 09:42:02;;;;;;;5.10;2.90;;;;;;;25.47;37.46;96952.17;108282;1262;22664;-81
2023/05/21 09:44:36;;;;;;;5.00;3.20;;;;;;;25.18;36.86;96950.59;108300;1285;22472;-81
2023/05/21 09:47:08;;;;;;;5.80;3.20;;;;;;;25.06;38.06;96949.33;108261;1281;25495;-80
2023/05/21 09:49:40;;;;;;;4.40;3.30;;;;;;;25.06;37.78;96950.73;108857;1277;22514;-80
2023/05/21 09:52:11;;;;;;;4.50;3.10;;;;;;;25.19;38.27;96951.38;108857;1274;24492;-81
2023/05/21 09:54:42;;;;;;;7.10;3.40;;;;;;;25.26;37.96;96952.81;108827;1273;22510;-81
2023/05/21 09:57:16;;;;;;;5.10;3.10;;;;;;;24.98;37.01;96951.50;108871;1274;22489;-80
2023/05/21 09:59:50;;;;;;;7.70;3.40;;;;;;;24.70;37.97;96949.17;108882;1272;24185;-80
2023/05/21 10:02:22;;;;;;;3.70;3.10;;;;;;;24.74;37.74;96950.63;108809;1275;23892;-81
2023/05/21 10:04:55;;;;;;;3.80;2.80;;;;;;;24.68;38.15;96952.02;108809;1277;22477;-79
2023/05/21 10:07:27;;;;;;;8.10;3.10;;;;;;;24.61;38.36;96950.10;108826;1277;22569;-80
2023/05/21 10:10:00;;;;;;;3.80;2.80;;;;;;;24.73;38.50;96949.61;108861;1277;25263;-80
2023/05/21 10:12:33;;;;;;;3.30;2.70;;;;;;;24.79;37.99;96951.64;108819;1271;22476;-80
2023/05/21 10:15:08;;;;;;;3.70;2.30;;;;;;;24.77;38.12;96952.07;108828;1277;22674;-80
2023/05/21 10:17:41;;;;;;;7.10;2.80;;;;;;;24.51;36.65;96950.70;108811;1278;22593;-80
2023/05/21 10:20:13;;;;;;;8.80;2.70;;;;;;;24.14;38.01;96947.45;108842;1277;22643;-80
2023/05/21 10:22:46;;;;;;;4.50;2.70;;;;;;;24.19;37.46;96949.92;108803;1277;22491;-77
2023/05/21 10:25:19;;;;;;;4.70;2.90;;;;;;;24.24;37.34;96946.08;108823;1275;24208;-77
2023/05/21 10:27:50;;;;;;;3.30;2.80;;;;;;;24.11;37.54;96941.52;108945;1273;24981;-80
2023/05/21 10:30:23;;;;;;;4.30;2.50;;;;;;;24.21;37.37;96941.92;109135;1278;22834;-80
2023/05/21 10:32:58;;;;;;;3.50;2.50;;;;;;;24.24;36.91;96940.35;108917;1275;22573;-80
2023/05/21 10:35:30;;;;;;;3.30;2.20;;;;;;;24.33;37.67;96936.11;108832;1277;22589;-80
2023/05/21 10:38:04;;;;;;;4.30;2.20;;;;;;;24.53;37.23;96937.11;108942;1254;22605;-80
2023/05/21 10:40:36;;;;;;;3.00;2.10;;;;;;;24.48;35.99;96940.81;108862;1255;40164;-80
2023/05/21 10:43:51;;;;;;;5.10;2.50;;;;;;;24.34;36.07;96935.59;108839;1277;23778;-80
2023/05/21 10:46:40;;;;;;;3.70;2.50;;;;;;;24.12;36.07;96933.31;108838;1278;24349;-80
2023/05/21 10:49:27;;;;;;;5.80;2.40;;;;;;;24.18;37.27;96925.68;108806;1277;23486;-80
2023/05/21 10:52:04;;;;;;;3.70;2.40;;;;;;;24.18;36.30;96931.51;108774;1277;22594;-80
2023/05/21 10:54:53;;;;;;;2.30;2.00;;;;;;;23.90;35.66;96927.77;108804;1272;22535;-80
2023/05/21 10:57:46;;;;;;;3.50;2.40;;;;;;;23.65;34.91;96922.32;108865;1276;25239;-80
2023/05/21 11:00:20;;;;;;;4.40;2.20;;;;;;;23.61;35.76;96924.54;108836;1277;22612;-80
2023/05/21 11:02:52;;;;;;;3.10;2.80;;;;;;;23.59;36.78;96922.96;108767;1270;22483;-80
2023/05/21 11:05:41;;;;;;;3.40;2.30;;;;;;;23.44;36.95;96919.90;108771;1277;22487;-80
2023/05/21 11:08:24;;;;;;;3.80;2.50;;;;;;;23.57;37.11;96919.73;108821;1275;22462;-81
2023/05/21 11:10:57;;;;;;;3.90;2.60;;;;;;;23.47;36.84;96925.69;108790;1277;22469;-81
2023/05/21 11:13:31;;;;;;;3.60;2.70;;;;;;;23.31;37.55;96926.88;108829;1275;22571;-80
2023/05/21 11:16:07;;;;;;;5.30;2.60;;;;;;;23.32;38.07;96925.52;108841;1275;22528;-81
2023/05/21 11:19:00;;;;;;;2.30;2.10;;;;;;;23.25;35.88;96929.54;108818;1275;25949;-80
2023/05/21 11:21:36;;;;;;;4.60;2.40;;;;;;;23.17;35.88;96925.11;108787;1277;25403;-81
2023/05/21 11:24:09;;;;;;;3.20;2.50;;;;;;;23.33;37.27;96919.77;108831;1275;22526;-80
2023/05/21 11:27:03;;;;;;;4.50;2.50;;;;;;;23.42;36.39;96926.29;108854;1275;22729;-80
2023/05/21 11:29:43;;;;;;;4.70;2.80;;;;;;;23.35;37.43;96928.29;108838;1277;22528;-81
2023/05/21 11:32:19;;;;;;;4.50;2.60;;;;;;;23.28;37.26;96926.45;108801;1273;22481;-80
2023/05/21 11:34:51;;;;;;;4.80;3.10;;;;;;;23.44;39.68;96923.84;108844;1277;22471;-80
2023/05/21 11:37:44;;;;;;;6.40;3.30;;;;;;;23.58;41.47;96919.69;108796;1277;22527;-80
2023/05/21 11:40:28;;;;;;;7.80;3.30;;;;;;;23.71;41.24;96913.31;108798;1277;22619;-81